Time;durP1;ratioP1;P1;durP2;ratioP2;P2;SDS_P1;SDS_P2;PMS_P1;PMS_P2;Temp;Humidity;BMP_temperature;BMP_pressure;BME280_temperature;BME280_humidity;BME280_pressure;Samples;Min_cycle;Max_cycle;Signal;HPM_P1;HPM_P2
2022/01/16 00:00:20;;;;;;;24.57;8.87;;;-0.70;99.90;;;;;;6249481;22;20438;-84
2022/01/16 00:21:35;;;;;;;;;;;;;;;;;;;;;
2022/01/16 00:24:34;;;;;;;19.57;7.73;;;-0.80;99.90;;;;;;6256074;22;20364;-93
2022/01/16 00:27:51;;;;;;;22.73;8.47;;;-0.70;99.90;;;;;;6192640;23;20001;-93
2022/01/16 00:50:27;;;;;;;26.07;6.53;;;-0.80;99.90;;;;;;6309397;22;20064;-92
2022/01/16 00:53:31;;;;;;;43.23;7.10;;;-0.80;99.90;;;;;;6297996;22;20094;-91
2022/01/16 00:58:55;;;;;;;25.70;6.80;;;-0.80;99.90;;;;;;6247396;22;20369;-92
2022/01/16 01:02:34;;;;;;;20.87;6.97;;;-0.80;99.90;;;;;;6215318;23;20063;-92
2022/01/16 01:05:25;;;;;;;24.83;6.30;;;-0.80;99.90;;;;;;6218375;22;20009;-93
2022/01/16 01:08:41;;;;;;;17.83;6.37;;;-0.80;99.90;;;;;;6210595;23;20003;-90
2022/01/16 01:11:16;;;;;;;26.20;7.13;;;-0.80;99.90;;;;;;6201780;23;20008;-92
2022/01/16 01:19:33;;;;;;;20.33;7.03;;;-0.80;99.90;;;;;;6217992;23;20004;-91
2022/01/16 01:22:00;;;;;;;16.30;6.67;;;-0.70;99.90;;;;;;6225732;23;20030;-92
2022/01/16 01:24:29;;;;;;;22.07;7.47;;;-0.80;99.90;;;;;;6235482;23;19988;-92
2022/01/16 01:30:09;;;;;;;27.43;6.00;;;-0.70;99.90;;;;;;6205398;23;20075;-91
2022/01/16 01:32:54;;;;;;;43.73;7.00;;;-0.70;99.90;;;;;;6257256;23;20008;-92
2022/01/16 01:35:24;;;;;;;44.93;7.80;;;-0.80;99.90;;;;;;6229615;23;20039;-92
2022/01/16 01:37:49;;;;;;;36.93;7.70;;;-0.80;99.90;;;;;;6228149;23;20008;-92
2022/01/16 01:40:24;;;;;;;44.30;6.97;;;-0.80;99.90;;;;;;6228145;23;20031;-91
2022/01/16 01:51:44;;;;;;;19.73;6.87;;;-1.00;99.90;;;;;;6254550;23;20093;-93
2022/01/16 01:54:11;;;;;;;20.13;7.63;;;-0.90;99.90;;;;;;6227934;23;20000;-92
2022/01/16 01:56:39;;;;;;;20.43;6.57;;;-0.80;99.90;;;;;;6226506;22;20004;-92
2022/01/16 01:59:11;;;;;;;40.43;7.57;;;-1.00;99.90;;;;;;6227402;23;20008;-91
2022/01/16 02:01:40;;;;;;;29.20;7.20;;;-0.90;99.90;;;;;;6226456;23;20004;-92
2022/01/16 02:04:09;;;;;;;28.97;7.27;;;-0.90;99.90;;;;;;6227752;23;20030;-92
2022/01/16 02:06:44;;;;;;;26.00;6.73;;;-0.90;99.90;;;;;;6225732;23;20031;-92
2022/01/16 02:09:11;;;;;;;22.33;7.43;;;-0.90;99.90;;;;;;6223646;23;20004;-92
2022/01/16 02:11:39;;;;;;;20.57;7.60;;;-0.90;99.90;;;;;;6225235;23;20007;-92
2022/01/16 02:28:46;;;;;;;20.33;5.40;;;-0.90;99.90;;;;;;6255438;23;20057;-91
2022/01/16 02:37:13;;;;;;;33.80;9.07;;;-0.90;99.90;;;;;;6248905;22;20015;-92
2022/01/16 02:39:51;;;;;;;33.73;8.20;;;-0.80;99.90;;;;;;6226125;23;20004;-92
2022/01/16 02:42:37;;;;;;;36.63;8.60;;;-0.80;99.90;;;;;;6224033;23;20461;-91
2022/01/16 02:45:04;;;;;;;27.67;7.50;;;-0.70;99.90;;;;;;6224142;22;20004;-92
2022/01/16 02:47:36;;;;;;;35.13;8.00;;;-0.80;99.90;;;;;;6221873;23;20071;-92
2022/01/16 02:50:06;;;;;;;24.63;8.38;;;-0.90;99.90;;;;;;6222709;23;20004;-92
2022/01/16 02:52:32;;;;;;;31.60;8.43;;;-0.80;99.90;;;;;;6223056;23;20012;-92
2022/01/16 02:55:01;;;;;;;26.30;8.27;;;-0.90;99.90;;;;;;6222661;22;20077;-92
2022/01/16 02:57:35;;;;;;;34.43;8.33;;;-0.80;99.90;;;;;;6222610;23;20438;-92
2022/01/16 03:00:04;;;;;;;50.03;8.47;;;-0.90;99.90;;;;;;6222383;23;20004;-92
2022/01/16 03:02:39;;;;;;;34.87;9.00;;;-0.90;99.90;;;;;;6222932;23;20008;-92
2022/01/16 03:05:07;;;;;;;38.23;7.90;;;-0.90;99.90;;;;;;6222618;22;20000;-91
2022/01/16 03:07:38;;;;;;;40.77;8.27;;;-1.00;99.90;;;;;;6247943;23;20079;-92
2022/01/16 03:12:57;;;;;;;29.33;8.40;;;-1.10;99.90;;;;;;6259119;23;20615;-92
2022/01/16 03:15:26;;;;;;;32.77;8.60;;;-1.00;99.90;;;;;;6221551;23;20004;-91
2022/01/16 03:23:11;;;;;;;44.10;8.10;;;-1.00;99.90;;;;;;6249714;23;20027;-92
2022/01/16 03:25:37;;;;;;;32.47;8.30;;;-1.00;99.90;;;;;;6221425;23;20004;-92
2022/01/16 03:28:21;;;;;;;38.30;8.27;;;-1.00;99.90;;;;;;6222360;23;20008;-92
2022/01/16 03:30:49;;;;;;;60.73;8.87;;;-1.00;99.90;;;;;;6221579;23;20008;-93
2022/01/16 03:33:15;;;;;;;22.40;7.87;;;-0.90;99.90;;;;;;6221199;23;20071;-92
2022/01/16 03:35:42;;;;;;;65.43;8.60;;;-0.80;99.90;;;;;;6222051;23;20004;-92
2022/01/16 03:38:08;;;;;;;21.97;8.13;;;-1.00;99.90;;;;;;6226320;23;20012;-92
2022/01/16 03:40:34;;;;;;;59.07;9.23;;;-1.00;99.90;;;;;;6224333;23;20363;-92
2022/01/16 03:43:12;;;;;;;38.17;8.23;;;-1.10;99.90;;;;;;6222916;23;20008;-92
2022/01/16 03:45:44;;;;;;;80.50;9.60;;;-1.20;99.90;;;;;;6223497;23;20023;-91
2022/01/16 03:48:10;;;;;;;60.05;8.63;;;-1.20;99.90;;;;;;6222164;23;20004;-92
2022/01/16 03:50:35;;;;;;;30.27;7.67;;;-1.20;99.90;;;;;;6222190;23;20012;-92
2022/01/16 03:53:04;;;;;;;51.47;8.20;;;-1.20;99.90;;;;;;6223553;23;20003;-92
2022/01/16 03:55:31;;;;;;;18.87;8.13;;;-1.20;99.90;;;;;;6223144;23;20260;-91
2022/01/16 03:57:57;;;;;;;20.33;7.13;;;-1.20;99.90;;;;;;6222754;23;20044;-91
2022/01/16 04:00:23;;;;;;;23.53;7.63;;;-1.20;99.90;;;;;;6222935;23;20046;-92
2022/01/16 04:03:01;;;;;;;25.97;7.53;;;-1.20;99.90;;;;;;6223323;23;20316;-92
2022/01/16 04:05:26;;;;;;;54.20;8.60;;;-1.20;99.90;;;;;;6222745;23;20011;-91
2022/01/16 04:07:52;;;;;;;24.90;6.53;;;-1.20;99.90;;;;;;6223023;23;20004;-91
2022/01/16 04:10:20;;;;;;;57.53;7.70;;;-1.30;99.90;;;;;;6221451;23;20342;-92
2022/01/16 04:12:47;;;;;;;68.97;7.33;;;-1.30;99.90;;;;;;6222163;23;20011;-92
2022/01/16 04:17:45;;;;;;;17.90;7.13;;;-1.50;99.90;;;;;;6249538;23;20009;-92
2022/01/16 04:20:15;;;;;;;26.95;7.03;;;-1.50;99.90;;;;;;6221350;23;20012;-92
2022/01/16 04:22:45;;;;;;;31.73;7.23;;;-1.40;99.90;;;;;;6223197;23;20035;-92
2022/01/16 04:25:13;;;;;;;29.70;8.77;;;-1.50;99.90;;;;;;6222454;23;20697;-91
2022/01/16 04:27:45;;;;;;;18.47;6.67;;;-1.30;99.90;;;;;;6224536;23;20004;-92
2022/01/16 04:30:18;;;;;;;15.73;3.73;;;-1.50;99.90;;;;;;6225244;23;20031;-91
2022/01/16 04:32:46;;;;;;;28.57;7.00;;;-1.60;99.90;;;;;;6229636;23;20012;-91
2022/01/16 04:35:12;;;;;;;47.23;6.90;;;-1.60;99.90;;;;;;6230578;23;20049;-91
2022/01/16 04:37:41;;;;;;;22.57;6.47;;;-1.50;99.90;;;;;;6224577;23;20004;-91
2022/01/16 04:40:08;;;;;;;18.03;6.27;;;-1.60;99.90;;;;;;6221597;23;20000;-92
2022/01/16 04:45:19;;;;;;;57.60;7.60;;;-1.60;99.90;;;;;;6249264;22;20006;-91
2022/01/16 04:47:44;;;;;;;34.33;6.27;;;-1.60;99.90;;;;;;6222270;23;20031;-91
2022/01/16 04:50:13;;;;;;;84.30;7.93;;;-1.70;99.90;;;;;;6222154;23;20438;-92
2022/01/16 04:52:42;;;;;;;33.20;5.87;;;-1.80;99.90;;;;;;6221828;23;20007;-91
2022/01/16 04:55:10;;;;;;;66.80;7.73;;;-1.90;99.90;;;;;;6221994;22;20399;-92
2022/01/16 04:57:35;;;;;;;65.40;6.97;;;-1.90;99.90;;;;;;6235421;22;20016;-91
2022/01/16 05:00:12;;;;;;;34.17;6.17;;;-1.90;99.90;;;;;;6253071;22;20053;-92
2022/01/16 05:02:38;;;;;;;36.67;6.83;;;-1.90;99.90;;;;;;6255999;22;20004;-92
2022/01/16 05:05:04;;;;;;;21.57;5.90;;;-1.90;99.90;;;;;;6256509;22;20006;-91
2022/01/16 05:07:32;;;;;;;23.13;6.40;;;-1.80;99.90;;;;;;6255181;22;20082;-92
2022/01/16 05:10:01;;;;;;;19.97;5.07;;;-2.00;99.90;;;;;;6255053;22;20083;-92
2022/01/16 05:12:47;;;;;;;32.30;6.13;;;-1.90;99.90;;;;;;6254238;22;20004;-92
2022/01/16 05:17:56;;;;;;;16.63;5.43;;;-1.90;99.90;;;;;;6281828;22;20046;-92
2022/01/16 05:20:25;;;;;;;71.10;6.80;;;-1.90;99.90;;;;;;6254723;22;20038;-92
2022/01/16 05:22:51;;;;;;;48.63;6.63;;;-1.90;99.90;;;;;;6255077;22;20319;-92
2022/01/16 05:25:18;;;;;;;52.97;7.60;;;-1.90;99.90;;;;;;6253436;22;20003;-91
2022/01/16 05:27:44;;;;;;;32.40;6.83;;;-1.90;99.90;;;;;;6255198;22;20000;-92
2022/01/16 05:30:15;;;;;;;23.20;6.27;;;-1.90;99.90;;;;;;6254446;22;20491;-91
2022/01/16 05:32:41;;;;;;;53.40;6.47;;;-1.90;99.90;;;;;;6253556;22;20350;-92
2022/01/16 05:35:08;;;;;;;15.80;5.57;;;-1.90;99.90;;;;;;6253878;22;20010;-92
2022/01/16 05:37:37;;;;;;;41.57;6.40;;;-1.90;99.90;;;;;;6253273;22;20003;-91
2022/01/16 05:40:03;;;;;;;24.20;6.67;;;-2.00;99.90;;;;;;6252314;22;20012;-92
2022/01/16 05:42:32;;;;;;;21.83;7.20;;;-2.00;99.90;;;;;;6251321;22;20257;-92
2022/01/16 05:45:04;;;;;;;22.97;6.43;;;-2.00;99.90;;;;;;6283525;22;20000;-92
2022/01/16 05:47:32;;;;;;;21.27;6.20;;;-1.90;99.90;;;;;;6255620;22;20004;-90
2022/01/16 05:49:58;;;;;;;16.23;5.97;;;-1.90;99.90;;;;;;6255752;22;20222;-92
2022/01/16 05:52:26;;;;;;;24.43;6.43;;;-1.90;99.90;;;;;;6255199;22;20464;-91
2022/01/16 05:54:52;;;;;;;24.53;6.23;;;-2.00;99.90;;;;;;6251643;22;20050;-90
2022/01/16 05:57:18;;;;;;;33.93;6.50;;;-2.00;99.90;;;;;;6251943;22;20016;-92
2022/01/16 05:59:44;;;;;;;14.77;6.30;;;-2.00;99.90;;;;;;6250934;22;20082;-92
2022/01/16 06:02:10;;;;;;;16.03;6.03;;;-2.10;99.90;;;;;;6251866;22;20051;-91
2022/01/16 06:04:35;;;;;;;39.37;7.20;;;-2.00;99.90;;;;;;6251351;22;20384;-92
2022/01/16 06:07:01;;;;;;;18.77;6.67;;;-1.90;99.90;;;;;;6216017;22;20021;-83
2022/01/16 06:09:28;;;;;;;21.67;5.90;;;-2.00;99.90;;;;;;6218114;23;20009;-82
2022/01/16 06:11:54;;;;;;;17.43;7.30;;;-2.10;99.90;;;;;;6216430;23;20005;-83
2022/01/16 06:14:22;;;;;;;33.37;5.87;;;-2.10;99.90;;;;;;6219198;23;20084;-83
2022/01/16 06:16:47;;;;;;;16.60;6.37;;;-2.20;99.90;;;;;;6216128;23;20032;-83
2022/01/16 06:19:13;;;;;;;21.53;6.77;;;-2.30;99.90;;;;;;6218769;23;20442;-83
2022/01/16 06:21:39;;;;;;;17.17;6.13;;;-2.20;99.90;;;;;;6217140;23;20016;-83
2022/01/16 06:24:05;;;;;;;27.27;6.10;;;-2.20;99.90;;;;;;6216925;23;20492;-83
2022/01/16 06:26:31;;;;;;;49.13;7.27;;;-2.20;99.90;;;;;;6216263;23;20082;-83
2022/01/16 06:28:57;;;;;;;62.57;6.87;;;-2.30;99.90;;;;;;6215995;23;20028;-83
2022/01/16 06:31:23;;;;;;;38.10;6.73;;;-2.40;99.90;;;;;;6216556;23;20018;-83
2022/01/16 06:33:49;;;;;;;12.60;6.00;;;-2.40;99.90;;;;;;6242387;23;20020;-83
2022/01/16 06:36:14;;;;;;;16.93;6.60;;;-2.30;99.90;;;;;;6217131;23;20416;-83
2022/01/16 06:38:40;;;;;;;17.63;6.33;;;-2.30;99.90;;;;;;6216741;23;20064;-83
2022/01/16 06:41:06;;;;;;;27.90;7.73;;;-2.10;99.90;;;;;;6242185;23;20439;-83
2022/01/16 06:43:31;;;;;;;26.03;6.73;;;-2.10;99.90;;;;;;6219575;23;20060;-82
2022/01/16 06:45:57;;;;;;;33.27;6.90;;;-2.10;99.90;;;;;;6220020;23;20067;-83
2022/01/16 06:48:23;;;;;;;21.53;7.60;;;-2.10;99.90;;;;;;6245325;23;20435;-83
2022/01/16 06:50:49;;;;;;;24.80;6.63;;;-2.20;99.90;;;;;;6219672;23;20005;-83
2022/01/16 06:53:17;;;;;;;22.23;7.23;;;-2.20;99.90;;;;;;6221100;23;20000;-83
2022/01/16 06:55:43;;;;;;;47.37;6.97;;;-2.20;99.90;;;;;;6220761;23;20012;-84
2022/01/16 06:58:08;;;;;;;55.57;6.80;;;-2.20;99.90;;;;;;6219439;23;20490;-83
2022/01/16 07:00:34;;;;;;;29.57;6.00;;;-2.20;99.90;;;;;;6219862;23;20008;-83
2022/01/16 07:03:00;;;;;;;48.97;7.60;;;-2.30;99.90;;;;;;6219335;23;20005;-83
2022/01/16 07:05:25;;;;;;;18.00;6.67;;;-2.30;99.90;;;;;;6222953;23;20000;-83
2022/01/16 07:07:51;;;;;;;25.57;6.37;;;-2.30;99.90;;;;;;6250803;23;20004;-83
2022/01/16 07:10:20;;;;;;;47.27;7.83;;;-2.30;99.90;;;;;;6251480;22;19996;-83
2022/01/16 07:12:46;;;;;;;15.23;6.33;;;-2.40;99.90;;;;;;6252748;22;20007;-84
2022/01/16 07:15:12;;;;;;;14.43;5.77;;;-2.40;99.90;;;;;;6278948;22;20004;-85
2022/01/16 07:17:37;;;;;;;16.73;6.03;;;-2.50;99.90;;;;;;6259346;23;20008;-85
2022/01/16 07:20:03;;;;;;;22.53;5.70;;;-2.60;99.90;;;;;;6260297;23;20000;-84
2022/01/16 07:22:29;;;;;;;22.83;6.57;;;-2.70;99.90;;;;;;6280754;22;20007;-84
2022/01/16 07:24:55;;;;;;;18.03;5.53;;;-2.70;99.90;;;;;;6278702;22;20003;-83
2022/01/16 07:27:28;;;;;;;23.93;5.97;;;-2.70;99.90;;;;;;6253840;22;20000;-84
2022/01/16 07:29:54;;;;;;;18.20;6.23;;;-2.70;99.90;;;;;;6256368;22;20725;-84
2022/01/16 07:32:22;;;;;;;31.70;6.40;;;-2.60;99.90;;;;;;6256568;23;20012;-84
2022/01/16 07:34:48;;;;;;;21.87;5.67;;;-2.60;99.90;;;;;;6257330;22;20332;-84
2022/01/16 07:37:16;;;;;;;20.83;6.53;;;-2.50;99.90;;;;;;6257168;22;20015;-85
2022/01/16 07:39:42;;;;;;;17.90;6.10;;;-2.50;99.90;;;;;;6281111;22;20004;-83
2022/01/16 07:42:08;;;;;;;19.27;6.60;;;-2.40;99.90;;;;;;6254365;23;20034;-85
2022/01/16 07:44:34;;;;;;;14.10;6.30;;;-2.40;99.90;;;;;;6256451;23;20000;-85
2022/01/16 07:47:02;;;;;;;15.47;6.67;;;-2.30;99.90;;;;;;6280316;22;20004;-84
2022/01/16 07:49:28;;;;;;;15.13;5.93;;;-2.50;99.90;;;;;;6252931;22;20004;-84
2022/01/16 07:51:55;;;;;;;17.87;6.53;;;-2.50;99.90;;;;;;6253687;23;20427;-84
2022/01/16 07:54:21;;;;;;;16.10;6.73;;;-2.40;99.90;;;;;;6253464;22;20026;-83
2022/01/16 07:56:47;;;;;;;17.63;6.50;;;-2.30;99.90;;;;;;6279285;22;20068;-82
2022/01/16 07:59:21;;;;;;;13.93;6.17;;;-2.40;99.90;;;;;;6278402;22;20399;-83
2022/01/16 08:01:46;;;;;;;18.57;6.83;;;-2.30;99.90;;;;;;6253376;23;20004;-83
2022/01/16 08:04:12;;;;;;;19.47;7.40;;;-2.20;99.90;;;;;;6253598;23;20000;-83
2022/01/16 08:06:38;;;;;;;14.63;6.53;;;-2.10;99.90;;;;;;6276648;22;20008;-83
2022/01/16 08:09:06;;;;;;;14.97;6.60;;;-2.00;99.90;;;;;;6253798;23;20003;-83
2022/01/16 08:11:31;;;;;;;19.90;7.80;;;-2.00;99.90;;;;;;6277156;22;20038;-83
2022/01/16 08:13:57;;;;;;;18.27;6.43;;;-1.90;99.90;;;;;;6278172;22;20011;-84
2022/01/16 08:16:25;;;;;;;17.23;6.63;;;-2.00;99.90;;;;;;6276816;22;20389;-84
2022/01/16 08:18:51;;;;;;;14.63;6.97;;;-1.90;99.90;;;;;;6278254;22;20008;-84
2022/01/16 08:21:17;;;;;;;13.80;6.33;;;-1.90;99.90;;;;;;6277045;22;20095;-84
2022/01/16 08:23:42;;;;;;;14.13;6.60;;;-1.80;99.90;;;;;;6276279;22;20000;-83
2022/01/16 08:26:08;;;;;;;19.00;6.93;;;-1.70;99.90;;;;;;6248113;22;20015;-84
2022/01/16 08:28:34;;;;;;;15.83;7.23;;;-1.70;99.90;;;;;;6276313;22;20015;-83
2022/01/16 08:30:59;;;;;;;18.77;7.63;;;-1.50;99.90;;;;;;6252597;23;20008;-84
2022/01/16 08:33:25;;;;;;;15.40;7.43;;;-1.30;99.90;;;;;;6251881;23;20043;-84
2022/01/16 08:35:53;;;;;;;17.67;7.83;;;-1.30;99.90;;;;;;6276333;22;20609;-83
2022/01/16 08:38:20;;;;;;;18.77;7.77;;;-1.20;99.90;;;;;;6275547;22;20118;-84
2022/01/16 08:40:46;;;;;;;26.97;7.67;;;-1.00;99.90;;;;;;6276630;22;20050;-84
2022/01/16 08:43:11;;;;;;;17.73;7.77;;;-0.90;99.90;;;;;;6251075;23;20029;-83
2022/01/16 08:45:42;;;;;;;14.33;7.43;;;-0.80;99.90;;;;;;6248948;22;20465;-84
2022/01/16 08:48:09;;;;;;;19.67;8.03;;;-0.70;99.90;;;;;;6246489;22;20000;-85
2022/01/16 08:50:37;;;;;;;20.97;7.53;;;-0.60;99.90;;;;;;6271939;22;20075;-84
2022/01/16 08:53:04;;;;;;;16.77;7.37;;;-0.70;99.90;;;;;;6247745;23;20093;-84
2022/01/16 08:55:40;;;;;;;19.87;7.67;;;-0.70;99.90;;;;;;6249863;22;20059;-85
2022/01/16 08:58:09;;;;;;;21.00;7.73;;;-0.70;99.90;;;;;;6252107;23;20027;-85
2022/01/16 09:00:38;;;;;;;16.47;6.70;;;-0.60;99.90;;;;;;6250047;23;20000;-85
2022/01/16 09:03:12;;;;;;;13.87;6.30;;;-0.50;99.90;;;;;;6253911;23;20012;-85
2022/01/16 09:05:40;;;;;;;16.80;7.33;;;-0.50;99.90;;;;;;6252972;22;20027;-85
2022/01/16 09:08:06;;;;;;;15.13;7.30;;;-0.40;99.90;;;;;;6276380;22;20030;-85
2022/01/16 09:10:37;;;;;;;16.10;6.37;;;-0.20;99.90;;;;;;6249815;23;19996;-84
2022/01/16 09:13:08;;;;;;;16.30;6.67;;;-0.20;99.90;;;;;;6249915;23;20054;-84
2022/01/16 09:15:34;;;;;;;19.17;8.23;;;-0.30;99.90;;;;;;6249390;22;20039;-83
2022/01/16 09:17:59;;;;;;;17.33;6.80;;;-0.30;99.90;;;;;;6245790;22;20004;-85
2022/01/16 09:20:25;;;;;;;16.83;6.40;;;-0.30;99.90;;;;;;6246545;23;20009;-84
2022/01/16 09:22:51;;;;;;;16.77;7.43;;;-0.40;99.90;;;;;;6271885;22;20099;-84
2022/01/16 09:25:18;;;;;;;17.47;7.33;;;-0.30;99.90;;;;;;6270466;22;20285;-84
2022/01/16 09:27:44;;;;;;;16.33;6.93;;;-0.20;99.90;;;;;;6250346;23;20058;-85
2022/01/16 09:30:18;;;;;;;14.77;7.03;;;-0.20;99.90;;;;;;6249501;23;20000;-84
2022/01/16 09:32:46;;;;;;;14.27;6.90;;;-0.10;99.90;;;;;;6250288;22;20051;-84
2022/01/16 09:35:17;;;;;;;17.77;7.67;;;-0.10;99.90;;;;;;6248778;22;20000;-84
2022/01/16 09:37:52;;;;;;;17.27;7.90;;;0.00;99.90;;;;;;6254415;22;20000;-85
2022/01/16 09:40:21;;;;;;;19.17;7.23;;;0.10;99.90;;;;;;6274924;22;20091;-85
2022/01/16 09:42:53;;;;;;;17.57;7.93;;;0.30;99.90;;;;;;6252951;22;20001;-85
2022/01/16 09:45:23;;;;;;;19.23;6.70;;;0.40;99.90;;;;;;6251149;22;20000;-84
2022/01/16 09:48:04;;;;;;;15.63;7.50;;;0.40;99.90;;;;;;6253293;23;19996;-84
2022/01/16 09:50:32;;;;;;;16.80;7.23;;;0.50;99.90;;;;;;6276473;22;20454;-84
2022/01/16 09:53:01;;;;;;;14.37;7.13;;;0.50;99.90;;;;;;6276918;22;20015;-85
2022/01/16 09:55:27;;;;;;;18.50;8.43;;;0.60;99.90;;;;;;6274344;22;20015;-85
2022/01/16 09:57:56;;;;;;;16.07;7.13;;;0.60;99.90;;;;;;6275559;22;20004;-83
2022/01/16 10:00:28;;;;;;;17.77;8.10;;;0.70;99.90;;;;;;6251790;22;20000;-84
2022/01/16 10:02:57;;;;;;;12.70;6.43;;;0.70;99.90;;;;;;6276094;22;20588;-84
2022/01/16 10:05:37;;;;;;;15.77;7.40;;;0.80;99.90;;;;;;6248946;22;20434;-84
2022/01/16 10:08:05;;;;;;;16.13;6.70;;;0.80;99.90;;;;;;6272243;22;20012;-84
2022/01/16 10:10:39;;;;;;;14.30;6.50;;;0.80;99.90;;;;;;6272240;22;20438;-84
2022/01/16 10:13:58;;;;;;;15.50;7.03;;;0.80;99.90;;;;;;6250121;22;20027;-83
2022/01/16 10:16:43;;;;;;;14.73;6.60;;;0.90;99.90;;;;;;6157203;23;20045;-84
2022/01/16 10:19:25;;;;;;;15.20;7.43;;;0.90;99.90;;;;;;6276017;22;20353;-84
2022/01/16 10:21:58;;;;;;;14.98;6.03;;;1.10;99.90;;;;;;6251486;22;20004;-84
2022/01/16 10:24:29;;;;;;;18.87;6.43;;;1.10;99.90;;;;;;6276182;22;20079;-84
2022/01/16 10:27:17;;;;;;;13.60;6.10;;;1.20;99.90;;;;;;6244477;22;19996;-83
2022/01/16 10:29:56;;;;;;;18.33;6.33;;;1.10;99.90;;;;;;6249271;22;20219;-84
2022/01/16 10:32:33;;;;;;;16.30;6.73;;;1.10;99.90;;;;;;6270452;22;20019;-85
2022/01/16 10:35:21;;;;;;;15.93;6.23;;;1.20;99.90;;;;;;6272692;22;20026;-85
2022/01/16 10:37:48;;;;;;;13.63;6.97;;;1.20;99.90;;;;;;6273433;22;20012;-85
2022/01/16 10:40:38;;;;;;;18.10;7.43;;;1.40;99.90;;;;;;6249070;22;20034;-85
2022/01/16 10:43:15;;;;;;;21.90;7.87;;;1.60;99.90;;;;;;6233005;22;20103;-85
2022/01/16 10:45:44;;;;;;;16.60;7.83;;;1.70;99.90;;;;;;6275649;22;20080;-85
2022/01/16 10:48:14;;;;;;;20.90;7.47;;;1.80;99.90;;;;;;6280036;22;20007;-84
2022/01/16 10:50:51;;;;;;;20.03;7.30;;;1.90;99.90;;;;;;6256595;22;20008;-84
2022/01/16 10:53:25;;;;;;;17.47;7.60;;;1.90;99.90;;;;;;6276163;22;20007;-85
2022/01/16 10:56:05;;;;;;;14.17;7.20;;;2.00;99.90;;;;;;6249824;22;20000;-85
2022/01/16 10:58:43;;;;;;;16.87;6.90;;;2.10;99.90;;;;;;6250476;23;20000;-85
2022/01/16 11:01:16;;;;;;;14.80;7.17;;;2.00;99.90;;;;;;6252020;23;20015;-86
2022/01/16 11:03:58;;;;;;;13.07;6.73;;;2.20;99.90;;;;;;6252239;22;20000;-86
2022/01/16 11:06:33;;;;;;;12.07;5.07;;;2.40;99.90;;;;;;6263043;22;20432;-85
2022/01/16 11:09:07;;;;;;;18.17;7.30;;;2.30;99.90;;;;;;6250231;22;20035;-86
2022/01/16 11:11:33;;;;;;;15.43;7.20;;;2.30;99.90;;;;;;6273366;22;20004;-86
2022/01/16 11:14:06;;;;;;;16.30;7.53;;;2.20;99.90;;;;;;6248711;23;20011;-86
2022/01/16 11:16:44;;;;;;;19.87;6.67;;;2.10;99.90;;;;;;6275891;22;20600;-86
2022/01/16 11:19:26;;;;;;;15.20;7.23;;;2.00;99.90;;;;;;6247325;23;20397;-85
2022/01/16 11:22:10;;;;;;;15.93;7.53;;;2.00;99.90;;;;;;6249379;22;20009;-85
2022/01/16 11:27:44;;;;;;;16.75;7.60;;;2.10;99.90;;;;;;6236819;23;20004;-87
2022/01/16 11:30:14;;;;;;;14.77;6.30;;;2.30;99.90;;;;;;6258004;23;20099;-86
2022/01/16 11:32:43;;;;;;;14.87;6.77;;;2.30;99.90;;;;;;6256182;23;20011;-87
2022/01/16 11:35:36;;;;;;;16.00;7.43;;;2.30;99.90;;;;;;6254410;22;20005;-87
2022/01/16 11:38:12;;;;;;;18.87;7.47;;;2.30;99.90;;;;;;6246820;22;20099;-85
2022/01/16 11:40:49;;;;;;;17.13;7.30;;;2.40;99.90;;;;;;6245198;23;20012;-85
2022/01/16 11:43:48;;;;;;;21.03;8.10;;;2.30;99.90;;;;;;6244448;23;20196;-86
2022/01/16 11:46:32;;;;;;;15.67;7.50;;;2.40;99.90;;;;;;6247427;22;20490;-85
2022/01/16 11:49:09;;;;;;;18.57;7.80;;;2.40;99.90;;;;;;6248591;23;20000;-86
2022/01/16 11:54:12;;;;;;;18.27;7.90;;;2.40;99.90;;;;;;6246671;23;20008;-85
2022/01/16 11:56:49;;;;;;;19.23;8.37;;;2.40;99.90;;;;;;6247095;22;20012;-86
2022/01/16 11:59:42;;;;;;;20.87;8.60;;;2.20;99.90;;;;;;6251723;23;20042;-86
2022/01/16 12:02:40;;;;;;;21.65;8.73;;;2.40;99.90;;;;;;6251573;23;20008;-86
2022/01/16 12:05:12;;;;;;;19.70;8.37;;;2.40;99.90;;;;;;6252574;22;20007;-86
2022/01/16 12:07:48;;;;;;;19.03;8.37;;;2.40;99.90;;;;;;6265944;22;20008;-91
2022/01/16 12:10:35;;;;;;;24.20;9.00;;;2.30;99.90;;;;;;6247123;22;20004;-91
2022/01/16 12:13:00;;;;;;;18.80;7.67;;;2.30;99.90;;;;;;6248614;22;20018;-90
2022/01/16 12:15:28;;;;;;;21.10;8.93;;;2.30;99.90;;;;;;6248598;22;20003;-91
2022/01/16 12:17:54;;;;;;;20.57;9.33;;;2.30;99.90;;;;;;6275968;22;20406;-91
2022/01/16 12:20:26;;;;;;;23.10;8.83;;;2.30;99.90;;;;;;6275117;22;20006;-91
2022/01/16 12:22:59;;;;;;;19.15;9.10;;;2.20;99.90;;;;;;6273938;22;20015;-91
2022/01/16 12:25:32;;;;;;;21.57;9.00;;;2.10;99.90;;;;;;6273794;22;20426;-90
2022/01/16 12:28:01;;;;;;;24.53;9.20;;;2.10;99.90;;;;;;6274583;22;20426;-90
2022/01/16 12:30:33;;;;;;;20.73;8.43;;;2.10;99.90;;;;;;6246890;22;20000;-89
2022/01/16 12:33:14;;;;;;;24.23;8.93;;;2.10;99.90;;;;;;6274024;22;20061;-90
2022/01/16 12:35:55;;;;;;;19.83;9.37;;;2.10;99.90;;;;;;6275216;22;20222;-89
2022/01/16 12:38:32;;;;;;;14.90;7.83;;;2.00;99.90;;;;;;6274212;22;20081;-91
2022/01/16 12:41:09;;;;;;;20.50;8.53;;;2.00;99.90;;;;;;6274501;22;20376;-91
2022/01/16 12:43:48;;;;;;;16.73;7.47;;;2.00;99.90;;;;;;6275392;22;20004;-90
2022/01/16 12:46:31;;;;;;;19.93;7.33;;;1.90;99.90;;;;;;6275530;22;20007;-90
2022/01/16 12:49:16;;;;;;;19.75;7.15;;;2.00;99.90;;;;;;6275863;22;20417;-91
2022/01/16 12:51:46;;;;;;;21.63;8.70;;;1.90;99.90;;;;;;6275875;22;20011;-91
2022/01/16 12:54:41;;;;;;;20.50;7.60;;;1.90;99.90;;;;;;6276758;22;20007;-90
2022/01/16 12:57:06;;;;;;;18.60;6.40;;;2.00;99.90;;;;;;6266383;22;20007;-90
2022/01/16 12:59:41;;;;;;;15.90;6.33;;;2.00;99.90;;;;;;6274207;22;20012;-90
2022/01/16 13:02:08;;;;;;;14.57;5.97;;;2.00;99.90;;;;;;6275372;22;20079;-89
2022/01/16 13:04:42;;;;;;;16.67;5.90;;;2.10;99.90;;;;;;6273396;22;20002;-91
2022/01/16 13:07:10;;;;;;;13.90;5.60;;;2.20;99.90;;;;;;6274136;22;20011;-91
2022/01/16 13:09:39;;;;;;;13.27;6.00;;;2.20;99.90;;;;;;6275566;22;20398;-91
2022/01/16 13:12:07;;;;;;;16.73;5.83;;;2.30;99.90;;;;;;6274450;22;20039;-91
2022/01/16 13:14:38;;;;;;;15.30;5.57;;;2.30;99.90;;;;;;6275753;22;20446;-92
2022/01/16 13:17:08;;;;;;;11.13;4.67;;;2.40;99.90;;;;;;6275586;22;20076;-91
2022/01/16 13:19:48;;;;;;;16.57;5.33;;;2.40;99.90;;;;;;6275560;22;20073;-90
2022/01/16 13:22:16;;;;;;;10.63;3.97;;;2.50;99.90;;;;;;6273604;22;20023;-91
2022/01/16 13:24:50;;;;;;;9.93;3.90;;;2.50;99.90;;;;;;6275419;22;20081;-91
2022/01/16 13:27:17;;;;;;;9.83;4.13;;;2.50;99.90;;;;;;6274569;22;20004;-90
2022/01/16 13:30:25;;;;;;;11.13;3.90;;;2.50;99.90;;;;;;6272040;22;20087;-92
2022/01/16 13:32:52;;;;;;;11.40;4.53;;;2.50;99.90;;;;;;6274109;22;20004;-91
2022/01/16 13:35:31;;;;;;;10.67;4.37;;;2.50;99.90;;;;;;6274596;22;20389;-91
2022/01/16 13:38:08;;;;;;;10.47;3.90;;;2.50;99.90;;;;;;6274017;22;20067;-91
2022/01/16 13:40:34;;;;;;;11.47;4.17;;;2.50;99.90;;;;;;6275158;22;20090;-91
2022/01/16 13:43:12;;;;;;;12.37;3.70;;;2.50;99.90;;;;;;6274349;22;20461;-91
2022/01/16 13:45:40;;;;;;;8.60;3.53;;;2.60;99.90;;;;;;6275367;22;20007;-90
2022/01/16 13:48:19;;;;;;;8.67;3.33;;;2.60;99.90;;;;;;6274692;22;20010;-91
2022/01/16 13:50:54;;;;;;;10.17;3.70;;;2.60;99.90;;;;;;6274653;22;20008;-90
2022/01/16 13:53:42;;;;;;;12.50;3.83;;;2.60;99.90;;;;;;6275006;22;20007;-91
2022/01/16 13:56:21;;;;;;;11.90;4.10;;;2.70;99.90;;;;;;6276888;22;19999;-91
2022/01/16 13:58:53;;;;;;;12.20;4.03;;;2.60;99.90;;;;;;6275480;22;20058;-91
2022/01/16 14:01:20;;;;;;;9.63;3.42;;;2.60;99.90;;;;;;6276934;22;20457;-91
2022/01/16 14:04:03;;;;;;;10.87;4.03;;;2.60;99.90;;;;;;6278157;22;20060;-90
2022/01/16 14:06:31;;;;;;;12.30;4.27;;;2.60;99.90;;;;;;6274381;22;20012;-90
2022/01/16 14:09:08;;;;;;;10.23;4.30;;;2.60;99.90;;;;;;6273258;22;20483;-89
2022/01/16 14:11:49;;;;;;;11.00;4.50;;;2.60;99.90;;;;;;6276180;22;20069;-91
2022/01/16 14:14:21;;;;;;;11.50;4.47;;;2.60;99.90;;;;;;6271772;22;20004;-92
2022/01/16 14:17:27;;;;;;;9.18;4.07;;;2.60;99.90;;;;;;6274693;22;20560;-91
2022/01/16 14:20:21;;;;;;;7.47;3.17;;;2.70;99.90;;;;;;6276575;22;19999;-91
2022/01/16 14:22:46;;;;;;;11.10;4.13;;;2.60;99.90;;;;;;6275360;22;20064;-90
2022/01/16 14:25:15;;;;;;;9.03;3.93;;;2.70;99.90;;;;;;6276596;22;20315;-91
2022/01/16 14:27:44;;;;;;;10.60;4.60;;;2.60;99.90;;;;;;6275995;22;20330;-91
2022/01/16 14:30:16;;;;;;;13.27;4.77;;;2.70;99.90;;;;;;6275903;22;20309;-91
2022/01/16 14:32:44;;;;;;;11.13;3.93;;;2.70;99.90;;;;;;6277855;22;20004;-91
2022/01/16 14:35:13;;;;;;;12.70;3.90;;;2.80;99.90;;;;;;6278985;22;20012;-91
2022/01/16 14:37:39;;;;;;;10.40;4.33;;;2.80;99.90;;;;;;6297564;22;19991;-91
2022/01/16 14:40:43;;;;;;;9.47;3.63;;;2.90;99.90;;;;;;6297504;22;20004;-91
2022/01/16 14:43:20;;;;;;;10.33;3.20;;;2.90;99.90;;;;;;6300151;22;19988;-91
2022/01/16 14:45:45;;;;;;;8.20;3.77;;;2.90;99.90;;;;;;6290384;22;20014;-92
2022/01/16 14:48:12;;;;;;;9.63;4.00;;;2.90;99.90;;;;;;6276549;22;20456;-90